createdAt,value
2019-02-18T00:02:22.591Z,93.30
2019-02-18T00:04:48.840Z,93.20
2019-02-18T00:07:15.786Z,93.20
2019-02-18T00:09:42.033Z,93.50
2019-02-18T00:12:08.284Z,93.30
2019-02-18T00:14:34.610Z,93.40
2019-02-18T00:17:00.973Z,93.80
2019-02-18T00:19:27.289Z,93.90
2019-02-18T00:21:53.521Z,93.80
2019-02-18T00:24:19.768Z,93.80
2019-02-18T00:26:46.108Z,93.80
2019-02-18T00:29:12.341Z,93.80
2019-02-18T00:31:38.570Z,93.70
2019-02-18T00:34:04.930Z,93.80
2019-02-18T00:36:31.161Z,93.90
2019-02-18T00:38:57.406Z,94.00
2019-02-18T00:41:23.668Z,93.90
2019-02-18T00:43:49.892Z,93.70
2019-02-18T00:46:16.146Z,93.50
2019-02-18T00:48:42.378Z,93.40
2019-02-18T00:51:08.824Z,93.40
2019-02-18T00:53:35.078Z,93.30
2019-02-18T00:56:01.320Z,93.30
2019-02-18T00:58:27.548Z,93.50
2019-02-18T01:00:53.884Z,93.70
2019-02-18T01:03:20.127Z,93.60
2019-02-18T01:05:46.453Z,93.70
2019-02-18T01:08:12.786Z,93.90
2019-02-18T01:10:39.114Z,94.10
2019-02-18T01:13:05.336Z,94.00
2019-02-18T01:15:31.572Z,94.20
2019-02-18T01:17:57.845Z,95.20
2019-02-18T01:20:24.084Z,94.90
2019-02-18T01:22:50.481Z,94.80
2019-02-18T01:25:16.749Z,94.50
2019-02-18T01:27:43.088Z,94.40
2019-02-18T01:30:13.941Z,94.70
2019-02-18T01:32:40.289Z,95.00
2019-02-18T01:35:06.713Z,95.10
2019-02-18T01:37:32.948Z,95.40
2019-02-18T01:39:59.281Z,95.70
2019-02-18T01:42:25.533Z,96.10
2019-02-18T01:44:52.177Z,96.00
2019-02-18T01:47:18.522Z,96.30
2019-02-18T01:49:44.747Z,96.20
2019-02-18T01:52:11.082Z,96.10
2019-02-18T01:54:37.426Z,95.90
2019-02-18T01:57:03.700Z,96.00
2019-02-18T01:59:30.029Z,96.00
2019-02-18T02:01:56.365Z,95.60
2019-02-18T02:04:22.582Z,95.50
2019-02-18T02:06:48.810Z,95.50
2019-02-18T02:09:16.251Z,95.60
2019-02-18T02:11:42.494Z,95.60
2019-02-18T02:14:08.853Z,94.20
2019-02-18T02:16:35.109Z,93.20
2019-02-18T02:19:01.355Z,93.90
2019-02-18T02:21:27.613Z,94.20
2019-02-18T02:23:53.975Z,94.00
2019-02-18T02:26:20.310Z,93.70
2019-02-18T02:28:46.635Z,93.70
2019-02-18T02:31:12.992Z,93.50
2019-02-18T02:33:39.224Z,93.70
2019-02-18T02:36:05.465Z,93.90
2019-02-18T02:38:31.822Z,94.00
2019-02-18T02:40:58.157Z,93.90
2019-02-18T02:43:24.496Z,94.00
2019-02-18T02:45:50.842Z,94.00
2019-02-18T02:48:17.095Z,93.90
2019-02-18T02:50:43.371Z,93.80
2019-02-18T02:53:09.720Z,93.90
2019-02-18T02:55:36.043Z,94.00
2019-02-18T02:58:02.285Z,94.30
2019-02-18T03:00:29.686Z,94.30
2019-02-18T03:02:56.005Z,94.70
2019-02-18T03:05:22.336Z,94.80
2019-02-18T03:07:48.682Z,95.00
2019-02-18T03:10:14.909Z,94.90
2019-02-18T03:12:41.142Z,95.00
2019-02-18T03:15:10.597Z,94.90
2019-02-18T03:17:36.830Z,94.70
2019-02-18T03:20:05.662Z,94.60
2019-02-18T03:22:32.017Z,94.50
2019-02-18T03:25:10.898Z,94.60
2019-02-18T03:27:37.150Z,94.60
2019-02-18T03:30:28.439Z,94.50
2019-02-18T03:32:54.871Z,94.50
2019-02-18T03:35:21.191Z,94.60
2019-02-18T03:37:47.523Z,94.50
2019-02-18T03:40:13.773Z,94.40
2019-02-18T03:42:40.109Z,94.40
2019-02-18T03:45:06.852Z,94.30
2019-02-18T03:47:33.183Z,94.20
2019-02-18T03:49:59.417Z,94.00
2019-02-18T03:52:25.645Z,93.90
2019-02-18T03:54:51.888Z,93.80
2019-02-18T03:57:18.108Z,93.80
2019-02-18T03:59:44.495Z,93.80
2019-02-18T04:02:10.853Z,93.70
2019-02-18T04:04:37.175Z,93.70
2019-02-18T04:07:03.498Z,93.50
2019-02-18T04:09:29.767Z,93.40
2019-02-18T04:11:56.075Z,93.40
2019-02-18T04:14:22.305Z,93.20
2019-02-18T04:16:48.568Z,92.90
2019-02-18T04:19:14.893Z,92.80
2019-02-18T04:21:41.181Z,92.80
2019-02-18T04:24:07.507Z,92.70
2019-02-18T04:26:33.826Z,92.60
2019-02-18T04:29:00.056Z,92.60
2019-02-18T04:31:26.289Z,92.60
2019-02-18T04:33:52.543Z,92.40
2019-02-18T04:36:18.881Z,92.50
2019-02-18T04:38:53.901Z,92.50
2019-02-18T04:41:13.251Z,92.40
2019-02-18T04:43:42.001Z,92.70
2019-02-18T04:46:07.641Z,92.60
2019-02-18T04:48:33.855Z,92.70
2019-02-18T04:51:00.203Z,92.70
2019-02-18T04:53:26.562Z,92.80
2019-02-18T04:55:52.900Z,92.70
2019-02-18T04:58:19.145Z,92.60
2019-02-18T05:00:45.561Z,92.40
2019-02-18T05:03:11.789Z,92.40
2019-02-18T05:05:38.013Z,92.40
2019-02-18T05:08:04.262Z,92.20
2019-02-18T05:10:30.758Z,92.00
2019-02-18T05:12:57.081Z,91.80
2019-02-18T05:15:23.326Z,91.70
2019-02-18T05:17:49.645Z,91.50
2019-02-18T05:20:15.889Z,91.50
2019-02-18T05:22:42.151Z,91.50
2019-02-18T05:25:08.562Z,91.50
2019-02-18T05:27:34.857Z,91.60
2019-02-18T05:30:01.206Z,91.60
2019-02-18T05:32:27.531Z,91.50
2019-02-18T05:34:53.856Z,91.40
2019-02-18T05:37:20.090Z,91.40
2019-02-18T05:39:46.326Z,91.40
2019-02-18T05:42:12.571Z,91.30
2019-02-18T05:44:38.849Z,91.30
2019-02-18T05:47:05.157Z,91.50
2019-02-18T05:49:31.390Z,91.50
2019-02-18T05:51:57.638Z,91.60
2019-02-18T05:54:23.860Z,91.80
2019-02-18T05:56:50.197Z,91.80
2019-02-18T05:59:16.488Z,92.00
2019-02-18T06:01:42.923Z,91.80
2019-02-18T06:04:09.242Z,91.70
2019-02-18T06:06:35.482Z,91.60
2019-02-18T06:09:01.710Z,91.70
2019-02-18T06:11:27.960Z,91.80
2019-02-18T06:13:54.303Z,91.70
2019-02-18T06:16:20.647Z,91.60
2019-02-18T06:18:47.048Z,92.00
2019-02-18T06:21:13.326Z,91.90
2019-02-18T06:23:39.565Z,92.30
2019-02-18T06:26:05.827Z,92.20
2019-02-18T06:28:32.172Z,92.10
2019-02-18T06:30:58.521Z,92.30
2019-02-18T06:33:24.840Z,92.20
2019-02-18T06:35:51.189Z,92.40
2019-02-18T06:38:17.441Z,92.50
2019-02-18T06:40:43.772Z,92.50
2019-02-18T06:43:10.124Z,92.30
2019-02-18T06:45:38.255Z,92.20
2019-02-18T06:48:18.560Z,92.10
2019-02-18T06:50:45.094Z,92.00
2019-02-18T06:53:11.332Z,91.80
2019-02-18T06:55:37.564Z,91.80
2019-02-18T06:58:05.802Z,92.30
2019-02-18T07:00:33.914Z,92.20
2019-02-18T07:03:02.130Z,92.30
2019-02-18T07:05:30.264Z,92.20
2019-02-18T07:07:58.521Z,92.00
2019-02-18T07:10:29.340Z,92.00
2019-02-18T07:12:55.713Z,91.80
2019-02-18T07:15:21.957Z,91.90
2019-02-18T07:17:48.208Z,91.80
2019-02-18T07:20:14.527Z,91.80
2019-02-18T07:22:40.803Z,91.90
2019-02-18T07:25:08.337Z,92.00
2019-02-18T07:27:34.589Z,91.60
2019-02-18T07:30:00.937Z,91.60
2019-02-18T07:32:27.280Z,91.60
2019-02-18T07:34:53.515Z,91.60
2019-02-18T07:37:19.775Z,91.50
2019-02-18T07:39:46.161Z,91.60
2019-02-18T07:42:12.502Z,91.70
2019-02-18T07:44:38.826Z,91.90
2019-02-18T07:47:05.055Z,92.10
2019-02-18T07:49:31.289Z,92.10
2019-02-18T07:51:57.627Z,91.90
2019-02-18T07:54:23.884Z,91.90
2019-02-18T07:56:50.268Z,91.80
2019-02-18T07:59:16.598Z,91.60
2019-02-18T08:01:42.857Z,91.60
2019-02-18T08:04:09.160Z,91.70
2019-02-18T08:06:35.403Z,91.50
2019-02-18T08:09:04.038Z,90.90
2019-02-18T08:11:30.387Z,91.00
2019-02-18T08:13:56.750Z,90.90
2019-02-18T08:16:23.124Z,91.00
2019-02-18T08:18:49.449Z,91.10
2019-02-18T08:21:15.705Z,91.60
2019-02-18T08:23:42.885Z,91.20
2019-02-18T08:26:09.341Z,91.00
2019-02-18T08:28:35.669Z,91.00
2019-02-18T08:31:02.040Z,91.00
2019-02-18T08:33:29.564Z,90.80
2019-02-18T08:35:55.805Z,90.90
2019-02-18T08:38:22.063Z,90.80
2019-02-18T08:40:48.402Z,90.80
2019-02-18T08:43:14.737Z,90.90
2019-02-18T08:45:40.997Z,90.50
2019-02-18T08:48:07.222Z,90.50
2019-02-18T08:50:33.473Z,90.60
2019-02-18T08:52:59.804Z,90.90
2019-02-18T08:55:26.149Z,90.90
2019-02-18T08:57:52.484Z,91.10
2019-02-18T09:00:18.812Z,91.00
2019-02-18T09:02:45.072Z,90.80
2019-02-18T09:05:11.487Z,90.70
2019-02-18T09:07:37.816Z,90.60
2019-02-18T09:10:07.054Z,90.60
2019-02-18T09:12:33.395Z,90.60
2019-02-18T09:14:59.749Z,90.70
2019-02-18T09:17:25.962Z,90.70
2019-02-18T09:19:53.306Z,90.70
2019-02-18T09:22:30.417Z,90.50
2019-02-18T09:24:58.658Z,90.30
2019-02-18T09:27:25.002Z,90.10
2019-02-18T09:29:52.259Z,90.00
2019-02-18T09:32:18.583Z,90.00
2019-02-18T09:34:44.810Z,89.90
2019-02-18T09:37:11.083Z,89.50
2019-02-18T09:39:37.406Z,88.90
2019-02-18T09:42:03.648Z,88.40
2019-02-18T09:44:29.884Z,88.00
2019-02-18T09:46:56.113Z,87.90
2019-02-18T09:49:22.444Z,87.40
2019-02-18T09:51:48.777Z,87.10
2019-02-18T09:54:15.022Z,86.50
2019-02-18T09:56:41.252Z,85.80
2019-02-18T09:59:07.490Z,86.00
2019-02-18T10:01:33.721Z,86.40
2019-02-18T10:04:00.054Z,85.30
2019-02-18T10:06:26.456Z,85.40
2019-02-18T10:08:52.785Z,84.90
2019-02-18T10:11:19.026Z,84.80
2019-02-18T10:13:45.257Z,84.80
2019-02-18T10:16:12.606Z,84.90
2019-02-18T10:18:38.937Z,85.30
2019-02-18T10:21:05.222Z,85.50
2019-02-18T10:23:32.836Z,85.60
2019-02-18T10:26:05.460Z,85.80
2019-02-18T10:28:33.206Z,85.80
2019-02-18T10:31:02.506Z,85.50
2019-02-18T10:33:30.044Z,85.50
2019-02-18T10:36:00.206Z,85.00
2019-02-18T10:38:29.142Z,84.20
2019-02-18T10:41:06.906Z,84.10
2019-02-18T10:43:32.388Z,84.70
2019-02-18T10:45:56.681Z,85.00
2019-02-18T10:48:23.403Z,85.10
2019-02-18T10:50:49.750Z,84.70
2019-02-18T10:53:16.077Z,84.40
2019-02-18T10:55:42.424Z,83.80
2019-02-18T10:58:08.765Z,82.70
2019-02-18T11:00:35.109Z,81.80
2019-02-18T11:03:01.450Z,81.50
2019-02-18T11:05:27.782Z,81.30
2019-02-18T11:07:54.554Z,80.70
2019-02-18T11:10:20.896Z,79.90
2019-02-18T11:12:47.780Z,79.80
2019-02-18T11:15:14.176Z,79.40
2019-02-18T11:17:40.914Z,79.00
2019-02-18T11:20:09.232Z,78.60
2019-02-18T11:22:35.391Z,78.60
2019-02-18T11:25:01.740Z,78.20
2019-02-18T11:27:28.064Z,77.80
2019-02-18T11:29:54.397Z,77.30
2019-02-18T11:32:20.744Z,76.30
2019-02-18T11:34:47.600Z,76.20
2019-02-18T11:37:13.954Z,76.10
2019-02-18T11:39:40.331Z,75.60
2019-02-18T11:42:06.677Z,75.60
2019-02-18T11:44:33.011Z,76.00
2019-02-18T11:46:59.445Z,76.30
2019-02-18T11:49:25.749Z,76.20
2019-02-18T11:51:52.076Z,75.90
2019-02-18T11:54:18.497Z,75.50
2019-02-18T11:56:44.861Z,74.80
2019-02-18T11:59:11.207Z,75.10
2019-02-18T12:01:37.453Z,75.60
2019-02-18T12:04:03.785Z,75.70
2019-02-18T12:06:30.133Z,75.50
2019-02-18T12:08:56.578Z,75.30
2019-02-18T12:11:22.999Z,75.40
2019-02-18T12:13:49.422Z,75.60
2019-02-18T12:16:15.745Z,76.00
2019-02-18T12:18:42.221Z,75.40
2019-02-18T12:21:08.566Z,75.20
2019-02-18T12:23:34.885Z,74.90
2019-02-18T12:26:01.129Z,75.10
2019-02-18T12:28:27.506Z,74.50
2019-02-18T12:30:53.851Z,74.60
2019-02-18T12:33:20.219Z,74.90
2019-02-18T12:35:46.545Z,75.20
2019-02-18T12:38:12.895Z,74.80
2019-02-18T12:40:39.273Z,74.60
2019-02-18T12:43:05.606Z,75.10
2019-02-18T12:45:31.948Z,75.40
2019-02-18T12:47:58.317Z,76.10
2019-02-18T12:50:24.650Z,76.60
2019-02-18T12:52:51.890Z,76.80
2019-02-18T12:55:18.383Z,76.70
2019-02-18T12:57:44.757Z,76.70
2019-02-18T13:00:12.971Z,76.90
2019-02-18T13:02:44.206Z,77.00
2019-02-18T13:05:08.056Z,76.70
2019-02-18T13:07:34.405Z,76.80
2019-02-18T13:10:00.771Z,76.90
2019-02-18T13:12:27.173Z,76.80
2019-02-18T13:14:53.509Z,76.50
2019-02-18T13:17:20.373Z,76.50
2019-02-18T13:19:46.742Z,77.10
2019-02-18T13:22:13.081Z,76.00
2019-02-18T13:24:39.434Z,75.60
2019-02-18T13:27:06.856Z,75.30
2019-02-18T13:29:33.188Z,75.20
2019-02-18T13:31:59.569Z,75.10
2019-02-18T13:34:25.901Z,74.40
2019-02-18T13:36:55.353Z,74.50
2019-02-18T13:39:21.705Z,74.30
2019-02-18T13:41:48.045Z,74.50
2019-02-18T13:44:14.379Z,74.60
2019-02-18T13:46:40.731Z,74.70
2019-02-18T13:49:07.168Z,74.90
2019-02-18T13:51:33.506Z,75.00
2019-02-18T13:53:59.847Z,74.70
2019-02-18T13:56:26.184Z,74.90
2019-02-18T13:58:52.539Z,74.50
2019-02-18T14:01:18.877Z,75.00
2019-02-18T14:03:45.234Z,75.30
2019-02-18T14:06:11.581Z,74.90
2019-02-18T14:08:37.917Z,74.80
2019-02-18T14:11:04.237Z,75.00
2019-02-18T14:13:31.750Z,74.90
2019-02-18T14:15:58.494Z,75.00
2019-02-18T14:18:24.849Z,75.10
2019-02-18T14:20:51.224Z,75.70
2019-02-18T14:23:17.585Z,76.00
2019-02-18T14:25:44.042Z,76.00
2019-02-18T14:28:10.370Z,75.90
2019-02-18T14:30:36.701Z,76.50
2019-02-18T14:33:03.061Z,76.50
2019-02-18T14:35:29.805Z,77.00
2019-02-18T14:37:56.225Z,77.30
2019-02-18T14:40:22.525Z,77.20
2019-02-18T14:42:48.850Z,77.00
2019-02-18T14:45:15.212Z,76.60
2019-02-18T14:47:41.534Z,76.40
2019-02-18T14:50:08.461Z,76.60
2019-02-18T14:52:34.809Z,76.40
2019-02-18T14:55:01.435Z,76.70
2019-02-18T14:57:28.869Z,77.20
2019-02-18T14:59:57.642Z,77.20
2019-02-18T15:02:23.975Z,77.50
2019-02-18T15:04:50.308Z,77.80
2019-02-18T15:07:16.658Z,77.70
2019-02-18T15:09:42.991Z,77.80
2019-02-18T15:12:09.327Z,77.70
2019-02-18T15:14:37.149Z,77.60
2019-02-18T15:17:03.693Z,77.70
2019-02-18T15:19:30.038Z,78.00
2019-02-18T15:21:56.495Z,78.00
2019-02-18T15:24:22.921Z,78.30
2019-02-18T15:26:49.254Z,78.60
2019-02-18T15:29:15.623Z,78.60
2019-02-18T15:31:41.981Z,78.80
2019-02-18T15:34:08.425Z,78.70
2019-02-18T15:36:34.781Z,78.90
2019-02-18T15:39:01.262Z,79.20
2019-02-18T15:41:27.597Z,79.80
2019-02-18T15:43:54.049Z,80.50
2019-02-18T15:46:20.409Z,80.60
2019-02-18T15:48:46.747Z,80.80
2019-02-18T15:51:13.105Z,80.80
2019-02-18T15:53:39.481Z,80.80
2019-02-18T15:56:05.834Z,81.30
2019-02-18T15:58:32.170Z,81.80
2019-02-18T16:00:59.340Z,82.10
2019-02-18T16:03:25.780Z,82.10
2019-02-18T16:05:52.124Z,82.50
2019-02-18T16:08:18.498Z,82.50
2019-02-18T16:10:45.211Z,82.90
2019-02-18T16:13:11.571Z,83.00
2019-02-18T16:15:37.965Z,83.10
2019-02-18T16:18:04.370Z,83.30
2019-02-18T16:20:30.717Z,83.50
2019-02-18T16:22:57.101Z,83.80
2019-02-18T16:25:23.533Z,84.00
2019-02-18T16:27:54.921Z,84.00
2019-02-18T16:30:21.547Z,84.20
2019-02-18T16:32:48.898Z,84.40
2019-02-18T16:35:15.302Z,84.60
2019-02-18T16:37:41.700Z,85.00
2019-02-18T16:40:10.875Z,85.30
2019-02-18T16:42:37.337Z,85.80
2019-02-18T16:45:10.286Z,85.90
2019-02-18T16:47:36.664Z,86.10
2019-02-18T16:50:04.451Z,86.50
2019-02-18T16:52:31.903Z,87.20
2019-02-18T16:54:58.283Z,87.00
2019-02-18T16:57:24.675Z,87.30
2019-02-18T16:59:51.054Z,87.20
2019-02-18T17:02:17.446Z,87.20
2019-02-18T17:04:44.239Z,87.20
2019-02-18T17:07:10.618Z,87.10
2019-02-18T17:09:38.001Z,86.80
2019-02-18T17:12:04.331Z,86.50
2019-02-18T17:14:30.644Z,86.50
2019-02-18T17:16:57.095Z,86.30
2019-02-18T17:19:23.477Z,86.00
2019-02-18T17:21:49.818Z,86.10
2019-02-18T17:24:18.472Z,85.90
2019-02-18T17:26:44.702Z,86.20
2019-02-18T17:29:11.025Z,86.00
2019-02-18T17:31:37.353Z,86.20
2019-02-18T17:34:03.753Z,86.20
2019-02-18T17:36:30.103Z,85.90
2019-02-18T17:38:56.434Z,85.70
2019-02-18T17:41:22.802Z,85.90
2019-02-18T17:43:49.770Z,86.10
2019-02-18T17:46:16.126Z,86.20
2019-02-18T17:48:42.522Z,86.20
2019-02-18T17:51:08.858Z,86.10
2019-02-18T17:53:35.201Z,85.70
2019-02-18T17:56:01.565Z,85.60
2019-02-18T17:58:27.905Z,85.70
2019-02-18T18:00:56.057Z,85.60
2019-02-18T18:03:22.802Z,86.10
2019-02-18T18:05:49.147Z,86.20
2019-02-18T18:08:15.486Z,86.50
2019-02-18T18:10:41.836Z,86.60
2019-02-18T18:13:08.349Z,86.60
2019-02-18T18:15:34.679Z,86.60
2019-02-18T18:18:01.177Z,86.70
2019-02-18T18:20:29.036Z,87.00
2019-02-18T18:22:56.826Z,86.70
2019-02-18T18:25:23.174Z,86.50
2019-02-18T18:27:49.512Z,86.70
2019-02-18T18:30:19.007Z,86.70
2019-02-18T18:32:45.390Z,86.30
2019-02-18T18:35:11.848Z,86.10
2019-02-18T18:37:38.174Z,86.10
2019-02-18T18:40:10.264Z,86.30
2019-02-18T18:42:36.594Z,86.50
2019-02-18T18:45:05.286Z,86.20
2019-02-18T18:47:31.712Z,86.30
2019-02-18T18:49:59.261Z,86.20
2019-02-18T18:52:25.589Z,86.20
2019-02-18T18:54:51.953Z,86.10
2019-02-18T18:57:18.621Z,86.20
2019-02-18T18:59:45.781Z,86.50
2019-02-18T19:02:13.119Z,86.20
2019-02-18T19:04:39.473Z,86.20
2019-02-18T19:07:05.826Z,86.40
2019-02-18T19:09:32.193Z,86.40
2019-02-18T19:11:58.431Z,86.20
2019-02-18T19:14:24.774Z,86.20
2019-02-18T19:16:51.134Z,86.60
2019-02-18T19:19:17.519Z,86.10
2019-02-18T19:21:43.875Z,86.00
2019-02-18T19:24:10.265Z,85.90
2019-02-18T19:26:36.599Z,86.10
2019-02-18T19:29:02.945Z,85.90
2019-02-18T19:31:29.314Z,86.20
2019-02-18T19:33:55.980Z,86.10
2019-02-18T19:36:22.310Z,86.30
2019-02-18T19:38:48.731Z,86.30
2019-02-18T19:41:15.077Z,86.30
2019-02-18T19:43:41.450Z,86.50
2019-02-18T19:46:07.812Z,86.10
2019-02-18T19:48:34.130Z,86.20
2019-02-18T19:51:00.534Z,86.20
2019-02-18T19:53:26.874Z,86.40
2019-02-18T19:55:53.150Z,86.50
2019-02-18T19:58:19.501Z,86.60
2019-02-18T20:00:45.851Z,86.80
2019-02-18T20:03:12.194Z,86.80
2019-02-18T20:05:38.455Z,87.20
2019-02-18T20:08:04.850Z,87.10
2019-02-18T20:10:31.501Z,87.60
2019-02-18T20:12:57.837Z,87.90
2019-02-18T20:15:24.217Z,88.00
2019-02-18T20:17:50.570Z,87.40
2019-02-18T20:20:17.013Z,87.90
2019-02-18T20:22:43.387Z,87.90
2019-02-18T20:25:09.894Z,88.30
2019-02-18T20:27:36.241Z,88.30
2019-02-18T20:30:09.460Z,88.40
2019-02-18T20:32:35.790Z,88.60
2019-02-18T20:35:02.900Z,88.40
2019-02-18T20:37:29.556Z,88.30
2019-02-18T20:39:55.907Z,88.80
2019-02-18T20:42:22.235Z,89.20
2019-02-18T20:44:48.576Z,88.60
2019-02-18T20:47:15.461Z,88.20
2019-02-18T20:49:41.783Z,88.30
2019-02-18T20:52:10.538Z,88.30
2019-02-18T20:54:36.985Z,88.20
2019-02-18T20:57:03.309Z,88.20
2019-02-18T20:59:29.651Z,88.20
2019-02-18T21:01:55.983Z,88.20
2019-02-18T21:04:22.613Z,88.60
2019-02-18T21:06:48.987Z,88.40
2019-02-18T21:09:15.353Z,88.30
2019-02-18T21:11:41.693Z,88.30
2019-02-18T21:14:14.344Z,88.20
2019-02-18T21:16:36.249Z,88.10
2019-02-18T21:19:02.692Z,87.90
2019-02-18T21:21:29.106Z,88.00
2019-02-18T21:23:55.637Z,88.30
2019-02-18T21:26:21.858Z,88.20
2019-02-18T21:28:48.111Z,88.30
2019-02-18T21:31:14.504Z,88.00
2019-02-18T21:33:40.812Z,88.20
2019-02-18T21:36:07.179Z,88.10
2019-02-18T21:38:33.493Z,88.10
2019-02-18T21:40:59.870Z,88.00
2019-02-18T21:43:26.545Z,87.70
2019-02-18T21:45:52.773Z,87.40
2019-02-18T21:48:19.111Z,87.60
2019-02-18T21:50:45.415Z,87.80
2019-02-18T21:53:12.771Z,87.50
2019-02-18T21:55:39.142Z,87.30
2019-02-18T21:58:05.553Z,87.30
2019-02-18T22:00:31.938Z,87.40
2019-02-18T22:02:58.653Z,87.40
2019-02-18T22:05:25.001Z,87.60
2019-02-18T22:07:51.360Z,87.70
2019-02-18T22:10:17.701Z,87.70
2019-02-18T22:12:44.079Z,88.10
2019-02-18T22:15:12.131Z,88.10
2019-02-18T22:17:38.395Z,88.10
2019-02-18T22:20:07.633Z,88.40
2019-02-18T22:22:34.237Z,88.00
2019-02-18T22:25:01.886Z,88.50
2019-02-18T22:27:28.321Z,88.50
2019-02-18T22:29:54.745Z,88.90
2019-02-18T22:32:21.069Z,88.30
2019-02-18T22:34:47.417Z,88.90
2019-02-18T22:37:13.645Z,88.70
2019-02-18T22:39:40.001Z,88.70
2019-02-18T22:42:06.677Z,89.20
2019-02-18T22:44:33.039Z,89.90
2019-02-18T22:46:59.380Z,89.60
2019-02-18T22:49:25.729Z,89.70
2019-02-18T22:51:52.061Z,89.50
2019-02-18T22:54:18.401Z,89.60
2019-02-18T22:56:44.761Z,90.00
2019-02-18T22:59:11.122Z,89.70
2019-02-18T23:01:37.490Z,89.60
2019-02-18T23:04:04.183Z,89.80
2019-02-18T23:06:30.546Z,89.60
2019-02-18T23:08:56.893Z,89.50
2019-02-18T23:11:23.270Z,89.40
2019-02-18T23:13:49.542Z,89.70
2019-02-18T23:16:15.870Z,89.40
2019-02-18T23:18:42.210Z,89.50
2019-02-18T23:21:08.605Z,89.20
2019-02-18T23:23:34.999Z,89.20
2019-02-18T23:26:01.344Z,89.30
2019-02-18T23:28:27.702Z,89.10
2019-02-18T23:30:54.198Z,88.90
2019-02-18T23:33:20.552Z,89.20
2019-02-18T23:35:46.889Z,89.30
2019-02-18T23:38:13.146Z,89.30
2019-02-18T23:40:39.497Z,89.10
2019-02-18T23:43:05.853Z,89.10
2019-02-18T23:45:32.205Z,89.20
2019-02-18T23:47:58.500Z,89.20
2019-02-18T23:50:25.833Z,89.00
2019-02-18T23:52:52.062Z,88.90
2019-02-18T23:55:18.393Z,89.00
2019-02-18T23:57:44.685Z,88.90
